Time;durP1;ratioP1;P1;durP2;ratioP2;P2;SDS_P1;SDS_P2;PMS_P1;PMS_P2;Temp;Humidity;BMP_temperature;BMP_pressure;BME280_temperature;BME280_humidity;BME280_pressure;Samples;Min_cycle;Max_cycle;Signal;HPM_P1;HPM_P2
2024/02/29 00:00:40;;;;;;;2.10;0.50;;;15.50;96.70;;;;;;4989741;28;20469;-73
2024/02/29 00:03:09;;;;;;;1.02;0.45;;;15.50;96.70;;;;;;4978263;28;21174;-73
2024/02/29 00:05:39;;;;;;;2.45;0.50;;;15.50;96.70;;;;;;4976730;28;20041;-72
2024/02/29 00:08:10;;;;;;;1.98;0.50;;;15.50;96.70;;;;;;4991656;28;20085;-73
2024/02/29 00:10:40;;;;;;;3.78;0.68;;;15.50;96.70;;;;;;4975478;28;20081;-73
2024/02/29 00:13:12;;;;;;;1.27;0.40;;;15.50;96.70;;;;;;4971831;28;20054;-73
2024/02/29 00:15:40;;;;;;;5.65;0.70;;;15.50;96.70;;;;;;4988532;28;20061;-73
2024/02/29 00:18:10;;;;;;;1.30;0.55;;;15.50;96.70;;;;;;4982537;28;20052;-73
2024/02/29 00:20:42;;;;;;;1.33;0.47;;;15.60;96.70;;;;;;4996071;28;20939;-73
2024/02/29 00:23:14;;;;;;;3.33;0.60;;;15.60;96.70;;;;;;4996957;28;20056;-71
2024/02/29 00:25:43;;;;;;;2.05;0.73;;;15.60;96.70;;;;;;4987886;28;20042;-72
2024/02/29 00:28:14;;;;;;;1.88;0.50;;;15.60;96.70;;;;;;4990569;28;20057;-73
2024/02/29 00:30:46;;;;;;;3.22;0.52;;;15.60;96.70;;;;;;4981275;28;20084;-73
2024/02/29 00:33:18;;;;;;;1.08;0.30;;;15.60;96.70;;;;;;4967891;28;20060;-73
2024/02/29 00:35:51;;;;;;;3.45;0.68;;;15.60;96.70;;;;;;4997087;28;20042;-73
2024/02/29 00:38:32;;;;;;;3.85;0.65;;;15.60;96.70;;;;;;4989466;28;20062;-72
2024/02/29 00:41:02;;;;;;;3.72;0.77;;;15.60;96.70;;;;;;4989989;28;20550;-72
2024/02/29 00:43:34;;;;;;;2.35;0.40;;;15.60;96.70;;;;;;4997273;28;20053;-73
2024/02/29 00:46:05;;;;;;;1.95;0.55;;;15.60;96.70;;;;;;4975862;28;20061;-73
2024/02/29 00:48:34;;;;;;;2.42;0.43;;;15.60;96.70;;;;;;4981946;28;20054;-73
2024/02/29 00:51:05;;;;;;;4.20;0.70;;;15.60;96.70;;;;;;4969618;28;20589;-73
2024/02/29 00:53:35;;;;;;;1.58;0.45;;;15.60;96.70;;;;;;4986506;28;20058;-73
2024/02/29 00:56:04;;;;;;;1.90;0.55;;;15.70;96.70;;;;;;4976814;28;20053;-72
2024/02/29 00:58:36;;;;;;;2.00;0.80;;;15.60;96.70;;;;;;4972723;28;20097;-72
2024/02/29 01:01:05;;;;;;;2.20;0.40;;;15.60;96.70;;;;;;4990908;28;20054;-73
2024/02/29 01:03:38;;;;;;;2.45;0.70;;;15.60;96.70;;;;;;4973851;28;20062;-69
2024/02/29 01:06:07;;;;;;;1.42;0.80;;;15.60;96.70;;;;;;5003522;28;20053;-74
2024/02/29 01:08:36;;;;;;;3.30;0.73;;;15.70;96.70;;;;;;4983460;28;20051;-73
2024/02/29 01:11:07;;;;;;;2.20;0.63;;;15.60;96.70;;;;;;4990210;28;20056;-74
2024/02/29 01:13:38;;;;;;;3.63;0.80;;;15.60;96.70;;;;;;4995211;28;20046;-73
2024/02/29 01:16:08;;;;;;;2.45;0.60;;;15.60;96.70;;;;;;4997375;28;20049;-73
2024/02/29 01:18:37;;;;;;;4.75;1.25;;;15.60;96.70;;;;;;5007516;28;20045;-73
2024/02/29 01:21:06;;;;;;;4.25;0.80;;;15.60;96.70;;;;;;4989537;28;20057;-73
2024/02/29 01:23:35;;;;;;;4.18;0.73;;;15.60;96.70;;;;;;4983337;28;20054;-73
2024/02/29 01:26:05;;;;;;;3.97;0.80;;;15.60;96.70;;;;;;4977257;28;20486;-73
2024/02/29 01:28:39;;;;;;;3.42;0.80;;;15.60;96.70;;;;;;4978101;28;20056;-73
2024/02/29 01:31:08;;;;;;;3.25;1.15;;;15.60;96.70;;;;;;4991042;28;20087;-73
2024/02/29 01:33:37;;;;;;;5.15;0.90;;;15.60;96.70;;;;;;4974978;28;20050;-73
2024/02/29 01:36:07;;;;;;;1.92;0.85;;;15.60;96.70;;;;;;4978961;28;20049;-73
2024/02/29 01:38:36;;;;;;;1.33;0.73;;;15.60;96.70;;;;;;4974329;28;20062;-73
2024/02/29 01:41:07;;;;;;;4.35;1.23;;;15.60;96.70;;;;;;4977202;28;20414;-73
2024/02/29 01:43:38;;;;;;;3.92;0.80;;;15.60;96.70;;;;;;4982497;28;20216;-73
2024/02/29 01:46:12;;;;;;;2.50;0.80;;;15.60;96.70;;;;;;4969958;28;20150;-73
2024/02/29 01:48:41;;;;;;;3.40;1.00;;;15.60;96.70;;;;;;4998525;28;20057;-73
2024/02/29 01:51:10;;;;;;;3.22;1.42;;;15.60;96.70;;;;;;5001641;28;20043;-72
2024/02/29 01:53:40;;;;;;;3.92;0.80;;;15.70;96.70;;;;;;4979589;28;20108;-73
2024/02/29 01:56:12;;;;;;;4.32;1.33;;;15.70;96.70;;;;;;4983448;28;20038;-72
2024/02/29 01:58:42;;;;;;;3.03;1.00;;;15.70;96.70;;;;;;4973426;28;20054;-73
2024/02/29 02:01:10;;;;;;;3.70;1.10;;;15.60;96.70;;;;;;4981675;28;20061;-73
2024/02/29 02:03:41;;;;;;;5.40;1.40;;;15.60;96.70;;;;;;4980900;28;20048;-73
2024/02/29 02:06:10;;;;;;;2.08;0.98;;;15.60;96.70;;;;;;5004514;28;20046;-73
2024/02/29 02:08:40;;;;;;;2.97;1.05;;;15.60;96.70;;;;;;4987305;28;20049;-72
2024/02/29 02:11:10;;;;;;;3.53;1.17;;;15.50;96.70;;;;;;4982959;28;20068;-72
2024/02/29 02:13:41;;;;;;;3.92;0.95;;;15.50;96.70;;;;;;4979275;28;20131;-73
2024/02/29 02:16:11;;;;;;;3.33;0.82;;;15.50;96.70;;;;;;4973045;28;20141;-73
2024/02/29 02:18:40;;;;;;;6.28;1.60;;;15.50;96.70;;;;;;4984644;28;20064;-73
2024/02/29 02:21:10;;;;;;;3.13;0.80;;;15.40;96.70;;;;;;4986142;28;20073;-72
2024/02/29 02:23:40;;;;;;;5.00;1.10;;;15.40;96.70;;;;;;4997194;28;20083;-73
2024/02/29 02:26:09;;;;;;;2.85;0.82;;;15.40;96.70;;;;;;4983895;28;20139;-73
2024/02/29 02:28:39;;;;;;;3.72;0.93;;;15.40;96.70;;;;;;4988879;28;20047;-72
2024/02/29 02:31:08;;;;;;;3.83;1.42;;;15.40;96.70;;;;;;4974175;28;20066;-73
2024/02/29 02:33:38;;;;;;;3.30;1.00;;;15.30;96.70;;;;;;4971375;28;20061;-72
2024/02/29 02:36:09;;;;;;;3.97;0.80;;;15.30;96.70;;;;;;4979733;28;20133;-73
2024/02/29 02:38:42;;;;;;;3.40;1.00;;;15.40;96.70;;;;;;4977931;28;20681;-72
2024/02/29 02:41:12;;;;;;;4.72;1.50;;;15.40;96.70;;;;;;4974865;28;20073;-72
2024/02/29 02:43:42;;;;;;;1.55;0.73;;;15.40;96.70;;;;;;4986684;28;20050;-73
2024/02/29 02:46:12;;;;;;;4.57;1.27;;;15.40;96.70;;;;;;4995371;28;20145;-72
2024/02/29 02:48:42;;;;;;;3.08;0.73;;;15.40;96.70;;;;;;4974394;28;20614;-73
2024/02/29 02:51:13;;;;;;;6.03;1.05;;;15.40;96.70;;;;;;4980831;28;20524;-73
2024/02/29 02:53:44;;;;;;;3.60;0.80;;;15.40;96.70;;;;;;4979987;28;20049;-73
2024/02/29 02:56:13;;;;;;;5.57;1.20;;;15.40;96.70;;;;;;4971282;28;20121;-72
2024/02/29 02:58:41;;;;;;;4.07;1.30;;;15.40;96.70;;;;;;4995423;28;20065;-73
2024/02/29 03:01:13;;;;;;;5.70;1.40;;;15.40;96.70;;;;;;4997159;28;20113;-73
2024/02/29 03:03:43;;;;;;;4.00;1.27;;;15.40;96.70;;;;;;4993513;28;20128;-73
2024/02/29 03:06:14;;;;;;;7.78;1.50;;;15.50;96.70;;;;;;4967060;28;20050;-73
2024/02/29 03:08:44;;;;;;;6.53;1.52;;;15.50;96.70;;;;;;4969650;28;20296;-72
2024/02/29 03:11:14;;;;;;;5.07;1.48;;;15.50;96.70;;;;;;4987098;28;20058;-73
2024/02/29 03:13:43;;;;;;;5.97;1.27;;;15.40;96.70;;;;;;4970362;28;20058;-73
2024/02/29 03:16:12;;;;;;;6.80;1.42;;;15.40;96.70;;;;;;4972646;28;20141;-73
2024/02/29 03:18:42;;;;;;;5.07;1.77;;;15.40;96.70;;;;;;4967523;28;20407;-73
2024/02/29 03:21:14;;;;;;;4.47;1.45;;;15.40;96.70;;;;;;4970867;28;20065;-73
2024/02/29 03:23:45;;;;;;;7.18;1.10;;;15.40;96.70;;;;;;4982711;28;20057;-73
2024/02/29 03:26:15;;;;;;;5.85;1.33;;;15.40;96.70;;;;;;4980041;28;20081;-73
2024/02/29 03:28:46;;;;;;;6.85;1.55;;;15.40;96.70;;;;;;4974162;28;20057;-73
2024/02/29 03:31:16;;;;;;;7.15;1.92;;;15.40;96.70;;;;;;4995368;28;20050;-73
2024/02/29 03:33:46;;;;;;;4.30;1.40;;;15.40;96.70;;;;;;4976843;28;20039;-72
2024/02/29 03:36:15;;;;;;;6.63;1.75;;;15.30;96.70;;;;;;4970115;28;20499;-73
2024/02/29 03:38:49;;;;;;;9.80;1.80;;;15.30;96.70;;;;;;4986052;28;20061;-72
2024/02/29 03:41:18;;;;;;;8.30;1.60;;;15.30;96.70;;;;;;4971439;28;20053;-73
2024/02/29 03:43:47;;;;;;;11.75;1.85;;;15.30;96.70;;;;;;4975250;28;20046;-73
2024/02/29 03:46:16;;;;;;;7.95;1.70;;;15.30;96.70;;;;;;4977758;28;20049;-73
2024/02/29 03:48:47;;;;;;;12.13;1.92;;;15.30;96.70;;;;;;4982575;28;20073;-72
2024/02/29 03:51:18;;;;;;;6.43;1.63;;;15.30;96.70;;;;;;4998501;28;20053;-73
2024/02/29 03:53:50;;;;;;;10.57;1.83;;;15.30;96.70;;;;;;4989241;28;20057;-72
2024/02/29 03:56:20;;;;;;;4.55;1.33;;;15.30;96.70;;;;;;4968014;28;20046;-72
2024/02/29 03:58:51;;;;;;;5.75;1.60;;;15.30;96.70;;;;;;4990552;28;20054;-73
2024/02/29 04:01:21;;;;;;;8.82;2.53;;;15.30;96.70;;;;;;4998216;28;20077;-73
2024/02/29 04:03:51;;;;;;;12.55;1.80;;;15.30;96.70;;;;;;4975202;28;20492;-72
2024/02/29 04:06:21;;;;;;;8.90;1.92;;;15.30;96.70;;;;;;4985767;28;20140;-73
2024/02/29 04:08:52;;;;;;;13.98;2.40;;;15.30;96.70;;;;;;4994553;28;20058;-72
2024/02/29 04:11:22;;;;;;;10.13;2.53;;;15.30;96.70;;;;;;4990042;28;20068;-73
2024/02/29 04:13:53;;;;;;;11.23;2.28;;;15.30;96.70;;;;;;4985683;28;20144;-73
2024/02/29 04:16:22;;;;;;;10.15;1.88;;;15.30;96.70;;;;;;4983853;28;20141;-73
2024/02/29 04:18:51;;;;;;;7.38;1.73;;;15.30;96.70;;;;;;4977324;28;20093;-72
2024/02/29 04:21:20;;;;;;;10.43;1.95;;;15.30;96.70;;;;;;4967973;28;20137;-72
2024/02/29 04:23:51;;;;;;;8.90;2.10;;;15.30;96.70;;;;;;4976188;28;20708;-72
2024/02/29 04:26:23;;;;;;;8.52;1.80;;;15.30;96.70;;;;;;4990168;28;20057;-72
2024/02/29 04:28:54;;;;;;;5.05;1.60;;;15.30;96.70;;;;;;4986720;28;20527;-72
2024/02/29 04:31:23;;;;;;;9.57;2.00;;;15.20;96.70;;;;;;4979528;28;20061;-73
2024/02/29 04:33:52;;;;;;;6.35;1.70;;;15.20;96.70;;;;;;4994134;28;20038;-72
2024/02/29 04:36:21;;;;;;;7.05;1.58;;;15.20;96.70;;;;;;4981558;28;20046;-72
2024/02/29 04:38:52;;;;;;;6.25;1.85;;;15.30;96.70;;;;;;4973604;28;20113;-72
2024/02/29 04:41:21;;;;;;;7.38;1.92;;;15.20;96.70;;;;;;4981100;28;20058;-72
2024/02/29 04:43:53;;;;;;;9.13;2.30;;;15.20;96.70;;;;;;4968895;28;20053;-74
2024/02/29 04:46:22;;;;;;;6.57;1.90;;;15.20;96.70;;;;;;4971488;28;20054;-73
2024/02/29 04:48:51;;;;;;;10.70;1.90;;;15.20;96.70;;;;;;4991644;28;20068;-73
2024/02/29 04:51:21;;;;;;;7.40;1.80;;;15.20;96.70;;;;;;4995507;28;20073;-73
2024/02/29 04:53:51;;;;;;;10.25;1.88;;;15.20;96.70;;;;;;4970846;28;20051;-73
2024/02/29 04:56:21;;;;;;;9.95;2.35;;;15.20;96.70;;;;;;4985167;28;20046;-74
2024/02/29 04:58:50;;;;;;;9.68;1.70;;;15.20;96.70;;;;;;4979939;28;20055;-73
2024/02/29 05:01:22;;;;;;;8.52;2.15;;;15.20;96.70;;;;;;4999228;28;20058;-73
2024/02/29 05:03:52;;;;;;;11.52;2.72;;;15.20;96.70;;;;;;4980891;28;20084;-73
2024/02/29 05:06:20;;;;;;;7.35;1.55;;;15.20;96.70;;;;;;4990982;28;20050;-73
2024/02/29 05:08:51;;;;;;;4.72;1.38;;;15.20;96.70;;;;;;4985746;28;20054;-73
2024/02/29 05:11:20;;;;;;;8.18;2.30;;;15.20;96.70;;;;;;4998811;28;20145;-72
2024/02/29 05:13:49;;;;;;;7.40;1.70;;;15.30;96.70;;;;;;4999088;28;20041;-73
2024/02/29 05:16:20;;;;;;;6.60;1.50;;;15.30;96.70;;;;;;4986758;28;20085;-73
2024/02/29 05:18:49;;;;;;;6.97;1.33;;;15.30;96.70;;;;;;4991387;28;20104;-73
2024/02/29 05:21:20;;;;;;;8.07;1.70;;;15.30;96.70;;;;;;4991146;28;20064;-72
2024/02/29 05:23:49;;;;;;;5.75;1.77;;;15.30;96.70;;;;;;4975246;28;20136;-73
2024/02/29 05:26:21;;;;;;;4.18;1.42;;;15.40;96.70;;;;;;4977508;28;20069;-72
2024/02/29 05:28:53;;;;;;;6.13;1.67;;;15.30;96.70;;;;;;4988237;28;20431;-73
2024/02/29 05:31:24;;;;;;;6.18;2.00;;;15.40;96.70;;;;;;4969823;28;20057;-73
2024/02/29 05:33:53;;;;;;;5.63;1.58;;;15.40;96.70;;;;;;4996593;28;20056;-73
2024/02/29 05:36:22;;;;;;;5.22;1.40;;;15.40;96.70;;;;;;4998235;28;21376;-73
2024/02/29 05:38:51;;;;;;;9.52;1.30;;;15.40;96.70;;;;;;4973909;28;20058;-73
2024/02/29 05:41:21;;;;;;;5.05;1.30;;;15.40;96.70;;;;;;4973610;28;20046;-73
2024/02/29 05:43:51;;;;;;;7.35;1.75;;;15.40;96.70;;;;;;5001305;28;20062;-73
2024/02/29 05:46:22;;;;;;;5.18;1.10;;;15.30;96.70;;;;;;4980804;28;20478;-73
2024/02/29 05:48:52;;;;;;;4.38;1.10;;;15.30;96.70;;;;;;4986690;28;20054;-72
2024/02/29 05:51:21;;;;;;;6.20;1.45;;;15.40;96.70;;;;;;4976997;28;20046;-73
2024/02/29 05:53:50;;;;;;;6.10;1.40;;;15.40;96.70;;;;;;4982054;28;20061;-73
2024/02/29 05:56:22;;;;;;;4.72;1.98;;;15.40;96.70;;;;;;4973926;28;20058;-73
2024/02/29 05:58:52;;;;;;;5.50;1.00;;;15.40;96.70;;;;;;4972474;28;20058;-73
2024/02/29 06:01:23;;;;;;;6.85;1.35;;;15.40;96.70;;;;;;4972011;28;20057;-73
2024/02/29 06:03:54;;;;;;;3.90;1.20;;;15.40;96.70;;;;;;4985744;28;20057;-73
2024/02/29 06:06:23;;;;;;;4.78;1.25;;;15.40;96.70;;;;;;4974698;28;20459;-73
2024/02/29 06:08:54;;;;;;;4.35;1.08;;;15.40;96.70;;;;;;4977427;28;20054;-73
2024/02/29 06:11:26;;;;;;;4.60;1.20;;;15.40;96.70;;;;;;4980769;28;20151;-73
2024/02/29 06:13:56;;;;;;;3.58;1.00;;;15.30;96.70;;;;;;4986347;28;20061;-73
2024/02/29 06:16:27;;;;;;;3.50;0.70;;;15.30;96.70;;;;;;4969079;28;20058;-73
2024/02/29 06:18:56;;;;;;;2.35;1.00;;;15.30;96.70;;;;;;4985494;28;20062;-73
2024/02/29 06:21:26;;;;;;;5.13;1.25;;;15.30;96.70;;;;;;4978311;28;20496;-73
2024/02/29 06:23:55;;;;;;;3.72;1.08;;;15.30;96.70;;;;;;4989422;28;20136;-72
2024/02/29 06:26:26;;;;;;;3.40;0.90;;;15.40;96.70;;;;;;4980043;28;20045;-73
2024/02/29 06:28:55;;;;;;;3.83;0.90;;;15.40;96.70;;;;;;4998566;28;20499;-73
2024/02/29 06:31:25;;;;;;;5.07;1.00;;;15.30;96.70;;;;;;4986714;28;20072;-73
2024/02/29 06:33:57;;;;;;;2.92;0.90;;;15.30;96.70;;;;;;4968905;28;20145;-73
2024/02/29 06:36:25;;;;;;;3.40;0.90;;;15.30;96.70;;;;;;4989406;28;20060;-73
2024/02/29 06:38:56;;;;;;;4.10;0.70;;;15.30;96.70;;;;;;4968217;28;20054;-73
2024/02/29 06:41:27;;;;;;;4.05;1.10;;;15.40;96.70;;;;;;4967828;28;20584;-73
2024/02/29 06:43:58;;;;;;;1.63;0.68;;;15.40;96.70;;;;;;4995114;28;20062;-73
2024/02/29 06:46:28;;;;;;;1.48;0.40;;;15.40;96.70;;;;;;4985993;28;20050;-73
2024/02/29 06:49:02;;;;;;;4.03;0.85;;;15.40;96.70;;;;;;4982037;28;20097;-73
2024/02/29 06:51:33;;;;;;;3.28;0.80;;;15.40;96.70;;;;;;4954614;28;20137;-73
2024/02/29 06:54:02;;;;;;;4.47;0.80;;;15.40;96.70;;;;;;4974913;28;20108;-73
2024/02/29 06:56:37;;;;;;;3.53;0.70;;;15.40;96.70;;;;;;4970145;28;20050;-73
2024/02/29 06:59:05;;;;;;;2.67;0.52;;;15.40;96.70;;;;;;4971452;28;20286;-73
2024/02/29 07:01:35;;;;;;;2.90;0.68;;;15.50;96.70;;;;;;4974923;28;20045;-73
2024/02/29 07:04:05;;;;;;;3.10;0.90;;;15.50;96.70;;;;;;4984448;28;20046;-74
2024/02/29 07:06:36;;;;;;;2.00;0.68;;;15.50;96.70;;;;;;4985233;28;20054;-73
2024/02/29 07:09:04;;;;;;;4.25;0.70;;;15.60;96.70;;;;;;4978653;28;20137;-73
2024/02/29 07:11:34;;;;;;;4.63;0.68;;;15.60;96.70;;;;;;4980071;28;20723;-73
2024/02/29 07:14:03;;;;;;;5.25;0.77;;;15.60;96.70;;;;;;4991771;28;20077;-73
2024/02/29 07:16:34;;;;;;;2.47;0.80;;;15.60;96.70;;;;;;4974041;28;20050;-74
2024/02/29 07:19:07;;;;;;;4.20;0.70;;;15.60;96.70;;;;;;4971369;28;20054;-74
2024/02/29 07:21:36;;;;;;;2.30;0.60;;;15.70;96.70;;;;;;4971070;28;20141;-73
2024/02/29 07:24:08;;;;;;;2.08;0.50;;;15.70;96.70;;;;;;4977262;28;20133;-73
2024/02/29 07:26:42;;;;;;;1.98;0.55;;;15.70;96.70;;;;;;4994934;28;20042;-73
2024/02/29 07:29:11;;;;;;;3.75;0.60;;;15.70;96.70;;;;;;4985850;28;20085;-71
2024/02/29 07:31:41;;;;;;;2.72;0.70;;;15.80;96.70;;;;;;4986423;28;20467;-72
2024/02/29 07:34:10;;;;;;;4.55;0.80;;;15.80;96.70;;;;;;4986595;28;20104;-72
2024/02/29 07:36:43;;;;;;;2.65;0.73;;;15.90;96.70;;;;;;4970950;28;20045;-72
2024/02/29 07:39:13;;;;;;;2.63;0.63;;;15.90;96.70;;;;;;4988981;28;20116;-72
2024/02/29 07:41:44;;;;;;;3.05;1.00;;;16.00;96.70;;;;;;4983368;28;20415;-72
2024/02/29 07:44:14;;;;;;;3.90;0.80;;;16.00;96.70;;;;;;4993362;28;20050;-71
2024/02/29 07:46:45;;;;;;;2.22;0.68;;;16.00;96.70;;;;;;4990367;28;20058;-72
2024/02/29 07:49:16;;;;;;;3.40;0.70;;;16.00;96.70;;;;;;4980734;28;20522;-72
2024/02/29 07:51:46;;;;;;;1.42;0.57;;;16.10;96.70;;;;;;4987948;28;20108;-72
2024/02/29 07:54:15;;;;;;;3.58;1.10;;;16.10;96.70;;;;;;4980488;28;20426;-72
2024/02/29 07:56:48;;;;;;;3.20;0.90;;;16.10;96.70;;;;;;4987710;28;20049;-72
2024/02/29 07:59:18;;;;;;;1.95;0.63;;;16.10;96.70;;;;;;4980038;28;21241;-72
2024/02/29 08:01:47;;;;;;;4.20;0.60;;;16.10;96.70;;;;;;4992310;28;20046;-72
2024/02/29 08:04:17;;;;;;;2.63;0.70;;;16.20;96.70;;;;;;4985396;28;20108;-72
2024/02/29 08:06:47;;;;;;;2.13;0.40;;;16.20;96.70;;;;;;4982275;28;20042;-72
2024/02/29 08:09:18;;;;;;;1.95;0.65;;;16.30;96.70;;;;;;4978998;28;20046;-72
2024/02/29 08:11:49;;;;;;;1.80;0.60;;;16.30;96.70;;;;;;5001616;28;20049;-72
2024/02/29 08:14:20;;;;;;;1.40;0.60;;;16.30;96.70;;;;;;4994891;28;20054;-72
2024/02/29 08:16:50;;;;;;;4.00;0.70;;;16.40;96.70;;;;;;4974088;28;20447;-72
2024/02/29 08:19:22;;;;;;;3.38;0.65;;;16.60;96.70;;;;;;4998689;28;20553;-72
2024/02/29 08:21:52;;;;;;;1.50;0.40;;;16.70;96.70;;;;;;4993252;28;20050;-72
2024/02/29 08:24:21;;;;;;;1.15;0.40;;;16.80;96.70;;;;;;4983108;28;20078;-72
2024/02/29 08:26:51;;;;;;;3.72;0.47;;;16.90;96.70;;;;;;4978823;28;20038;-72
2024/02/29 08:29:19;;;;;;;1.52;0.40;;;17.10;96.70;;;;;;4980456;28;20046;-72
2024/02/29 08:31:50;;;;;;;1.48;0.50;;;17.10;96.70;;;;;;4997830;28;20497;-72
2024/02/29 08:34:19;;;;;;;4.00;0.70;;;17.20;96.70;;;;;;4994630;28;20672;-72
2024/02/29 08:36:49;;;;;;;1.05;0.50;;;17.20;96.70;;;;;;4987364;28;20047;-72
2024/02/29 08:39:18;;;;;;;1.17;0.35;;;17.30;96.70;;;;;;4974766;28;20053;-72
2024/02/29 08:41:48;;;;;;;0.80;0.25;;;17.40;96.70;;;;;;4982390;28;20057;-72
2024/02/29 08:44:18;;;;;;;2.35;0.47;;;17.50;96.70;;;;;;4981765;28;20530;-72
2024/02/29 08:46:48;;;;;;;2.72;0.60;;;17.50;96.70;;;;;;4982873;28;20458;-72
2024/02/29 08:49:16;;;;;;;3.13;0.50;;;17.50;96.70;;;;;;4986600;28;20073;-73
2024/02/29 08:51:46;;;;;;;3.05;0.45;;;17.60;96.70;;;;;;4986317;28;20060;-72
2024/02/29 08:54:16;;;;;;;3.17;0.47;;;17.60;96.70;;;;;;4973119;28;20057;-72
2024/02/29 08:56:45;;;;;;;1.77;0.40;;;17.70;96.70;;;;;;4989948;28;20072;-72
2024/02/29 08:59:14;;;;;;;3.95;0.60;;;17.70;96.70;;;;;;4971950;28;20039;-72
2024/02/29 09:01:47;;;;;;;2.35;0.55;;;17.70;96.70;;;;;;4982716;28;20140;-72
2024/02/29 09:04:16;;;;;;;1.48;0.38;;;17.70;96.70;;;;;;4997648;28;20047;-72
2024/02/29 09:06:46;;;;;;;2.25;0.57;;;17.70;96.70;;;;;;4973893;28;20065;-72
2024/02/29 09:09:16;;;;;;;2.38;0.38;;;17.60;96.70;;;;;;4982810;28;20507;-72
2024/02/29 09:11:46;;;;;;;1.40;0.45;;;17.60;96.70;;;;;;4979818;28;20054;-72
2024/02/29 09:14:15;;;;;;;3.15;0.65;;;17.60;96.70;;;;;;4978588;28;20100;-72
2024/02/29 09:16:47;;;;;;;2.40;0.50;;;17.60;96.70;;;;;;4985536;28;20049;-72
2024/02/29 09:19:15;;;;;;;2.05;0.40;;;17.50;96.70;;;;;;4970277;28;20070;-72
2024/02/29 09:21:44;;;;;;;2.47;0.40;;;17.60;96.70;;;;;;4981600;28;20137;-72
2024/02/29 09:24:14;;;;;;;1.08;0.30;;;17.60;96.70;;;;;;4975513;28;20423;-72
2024/02/29 09:26:43;;;;;;;3.17;0.60;;;17.70;96.70;;;;;;4979099;28;20042;-70
2024/02/29 09:29:12;;;;;;;2.03;0.43;;;17.60;96.70;;;;;;4997266;28;20581;-72
2024/02/29 09:31:44;;;;;;;1.15;0.32;;;17.60;96.70;;;;;;4976666;28;20617;-72
2024/02/29 09:34:16;;;;;;;1.13;0.40;;;17.70;96.70;;;;;;4981730;28;20058;-72
2024/02/29 09:36:46;;;;;;;1.40;0.40;;;17.80;96.70;;;;;;4978665;28;20046;-71
2024/02/29 09:39:15;;;;;;;4.53;0.40;;;17.90;96.70;;;;;;4978899;28;20066;-72
2024/02/29 09:41:46;;;;;;;1.25;0.30;;;17.80;96.70;;;;;;4983833;28;20605;-72
2024/02/29 09:44:37;;;;;;;1.10;0.30;;;17.70;96.70;;;;;;4992584;28;20049;-72
2024/02/29 09:47:08;;;;;;;1.55;0.38;;;17.60;96.70;;;;;;5008309;28;20115;-72
2024/02/29 09:49:39;;;;;;;1.73;0.20;;;17.60;96.70;;;;;;4982148;28;20054;-72
2024/02/29 09:52:13;;;;;;;2.80;0.30;;;17.60;96.70;;;;;;4988670;28;20082;-72
2024/02/29 09:54:42;;;;;;;0.98;0.20;;;17.60;96.70;;;;;;4981194;28;20136;-73
2024/02/29 09:57:13;;;;;;;1.77;0.43;;;17.60;96.70;;;;;;4983894;28;20137;-72
2024/02/29 09:59:43;;;;;;;0.90;0.35;;;17.70;96.70;;;;;;5001440;28;20060;-73
2024/02/29 10:02:17;;;;;;;0.30;0.20;;;17.80;96.70;;;;;;4980365;28;20057;-73
2024/02/29 10:04:48;;;;;;;1.35;0.40;;;17.90;96.70;;;;;;4981183;28;20137;-73
2024/02/29 10:07:19;;;;;;;0.70;0.20;;;18.00;96.70;;;;;;4980798;28;20086;-72
2024/02/29 10:09:49;;;;;;;1.80;0.32;;;18.20;96.70;;;;;;4979275;28;20540;-73
2024/02/29 10:12:19;;;;;;;1.52;0.20;;;18.40;96.70;;;;;;4986732;28;20057;-73
2024/02/29 10:14:57;;;;;;;0.90;0.32;;;18.50;96.70;;;;;;4977004;28;20141;-73
2024/02/29 10:17:31;;;;;;;0.43;0.20;;;18.60;96.70;;;;;;4987525;28;20132;-73
2024/02/29 10:20:03;;;;;;;3.13;0.20;;;18.80;96.70;;;;;;4991915;28;20054;-72
2024/02/29 10:22:34;;;;;;;2.08;0.55;;;18.90;96.70;;;;;;4984076;28;20054;-72
2024/02/29 10:25:03;;;;;;;0.70;0.20;;;19.00;96.70;;;;;;4989573;28;20403;-73
2024/02/29 10:27:34;;;;;;;1.50;0.40;;;19.10;96.70;;;;;;4969101;28;20039;-73
2024/02/29 10:30:04;;;;;;;2.88;0.30;;;19.20;96.70;;;;;;4988538;28;20160;-72
2024/02/29 10:32:33;;;;;;;2.22;0.70;;;19.20;96.70;;;;;;4968186;28;20065;-72
2024/02/29 10:35:18;;;;;;;2.47;0.63;;;19.00;96.70;;;;;;4990224;28;20097;-72
2024/02/29 10:37:48;;;;;;;1.23;0.50;;;18.90;96.70;;;;;;4997328;28;20046;-72
2024/02/29 10:40:17;;;;;;;2.35;0.40;;;18.70;96.70;;;;;;4982205;28;20442;-74
2024/02/29 10:42:55;;;;;;;2.05;0.57;;;18.70;96.70;;;;;;4953812;28;20075;-72
2024/02/29 10:45:26;;;;;;;2.92;0.43;;;18.60;96.70;;;;;;4956769;28;20046;-73
2024/02/29 10:48:22;;;;;;;2.85;0.73;;;18.50;96.70;;;;;;4972298;28;20538;-73
2024/02/29 10:51:03;;;;;;;3.90;0.68;;;18.40;96.70;;;;;;4962683;28;20058;-74
2024/02/29 10:53:41;;;;;;;3.58;1.00;;;18.40;96.70;;;;;;4968082;28;20054;-73
2024/02/29 10:56:20;;;;;;;3.13;0.40;;;18.30;96.70;;;;;;4959876;28;20054;-73
2024/02/29 10:58:57;;;;;;;4.93;1.02;;;18.30;96.70;;;;;;4961519;28;20081;-73
2024/02/29 11:01:28;;;;;;;2.13;0.43;;;18.20;96.70;;;;;;4950492;28;20838;-73
2024/02/29 11:03:59;;;;;;;3.10;0.60;;;18.10;96.70;;;;;;4976459;28;20512;-72
2024/02/29 11:06:34;;;;;;;2.72;0.50;;;18.10;96.70;;;;;;4980176;28;20097;-74
2024/02/29 11:09:06;;;;;;;1.90;0.60;;;18.10;96.70;;;;;;4963430;28;20082;-73
2024/02/29 11:11:37;;;;;;;2.72;0.80;;;18.00;96.70;;;;;;4951082;28;20143;-73
2024/02/29 11:14:11;;;;;;;5.43;1.05;;;17.90;96.70;;;;;;4960855;28;20050;-73
2024/02/29 11:16:41;;;;;;;3.22;0.95;;;17.90;96.70;;;;;;4964733;28;20077;-72
2024/02/29 11:19:14;;;;;;;1.83;1.05;;;17.90;96.70;;;;;;4964882;28;20050;-72
2024/02/29 11:21:47;;;;;;;3.33;1.08;;;17.90;96.70;;;;;;4950676;28;20619;-73
2024/02/29 11:24:19;;;;;;;4.43;1.25;;;17.90;96.70;;;;;;4970659;28;20133;-73
2024/02/29 11:26:55;;;;;;;1.92;0.90;;;18.00;96.70;;;;;;4965353;28;20113;-73
2024/02/29 11:29:26;;;;;;;5.28;1.30;;;18.00;96.70;;;;;;4978759;28;20054;-73
2024/02/29 11:31:58;;;;;;;3.08;1.17;;;18.00;96.70;;;;;;4961497;28;20058;-73
2024/02/29 11:34:29;;;;;;;3.92;1.40;;;18.00;96.70;;;;;;4942781;28;20059;-73
2024/02/29 11:36:59;;;;;;;6.53;1.45;;;18.00;96.70;;;;;;4951694;28;20059;-73
2024/02/29 11:39:28;;;;;;;4.82;1.27;;;18.00;96.70;;;;;;4959569;28;20055;-73
2024/02/29 11:42:02;;;;;;;6.03;1.70;;;18.00;96.70;;;;;;4995054;28;20572;-73
2024/02/29 11:44:36;;;;;;;6.57;2.13;;;17.90;96.70;;;;;;5003174;28;20088;-73
2024/02/29 11:47:06;;;;;;;6.00;1.88;;;17.90;96.70;;;;;;4979417;28;20053;-73
2024/02/29 11:49:35;;;;;;;5.78;1.80;;;17.90;96.70;;;;;;4974808;28;20065;-72
2024/02/29 11:52:08;;;;;;;3.65;1.92;;;18.00;96.70;;;;;;4994993;28;20144;-72
2024/02/29 11:54:37;;;;;;;4.68;2.40;;;18.10;96.70;;;;;;4981010;28;20050;-72
2024/02/29 11:57:06;;;;;;;3.72;1.60;;;18.10;96.70;;;;;;4997236;28;20046;-72
2024/02/29 11:59:38;;;;;;;5.05;1.45;;;18.10;96.70;;;;;;4990589;28;20041;-73
2024/02/29 12:02:07;;;;;;;5.63;1.40;;;18.20;96.70;;;;;;4975513;28;20165;-74
2024/02/29 12:04:39;;;;;;;3.13;1.40;;;18.20;96.70;;;;;;4973327;28;20429;-73
2024/02/29 12:07:12;;;;;;;4.80;1.23;;;18.20;96.70;;;;;;4964946;28;20047;-72
2024/02/29 12:09:41;;;;;;;5.90;1.67;;;18.10;96.70;;;;;;4986988;28;20502;-73
2024/02/29 12:12:12;;;;;;;6.40;1.80;;;18.10;96.70;;;;;;4991365;28;20050;-73
2024/02/29 12:14:42;;;;;;;5.13;1.95;;;18.10;96.70;;;;;;4974614;28;20166;-73
2024/02/29 12:17:12;;;;;;;5.22;1.60;;;18.10;96.70;;;;;;4971795;28;20046;-74
2024/02/29 12:19:42;;;;;;;4.60;2.05;;;18.10;96.70;;;;;;4981591;28;20052;-74
2024/02/29 12:22:13;;;;;;;5.88;2.15;;;18.00;96.70;;;;;;4993154;28;20058;-74
2024/02/29 12:24:44;;;;;;;5.90;1.90;;;17.90;96.70;;;;;;4974288;28;20104;-74
2024/02/29 12:27:14;;;;;;;5.00;2.15;;;17.90;96.70;;;;;;5004336;28;20050;-74
2024/02/29 12:29:48;;;;;;;6.00;2.58;;;17.80;96.70;;;;;;4970284;28;20258;-74
2024/02/29 12:32:16;;;;;;;6.25;2.47;;;17.80;96.70;;;;;;4990588;28;20508;-72
2024/02/29 12:34:47;;;;;;;7.90;2.40;;;17.80;96.70;;;;;;4977873;28;20054;-73
2024/02/29 12:37:22;;;;;;;6.07;3.00;;;17.80;96.70;;;;;;4989410;28;20573;-73
2024/02/29 12:39:55;;;;;;;10.35;2.45;;;17.80;96.70;;;;;;4986761;28;20529;-74
2024/02/29 12:42:25;;;;;;;8.63;3.13;;;17.70;96.70;;;;;;4983501;28;20074;-74
2024/02/29 12:44:53;;;;;;;10.18;2.90;;;17.70;96.70;;;;;;4984803;28;21081;-74
2024/02/29 12:47:23;;;;;;;8.20;3.65;;;17.70;96.70;;;;;;4966900;28;20113;-73
2024/02/29 12:49:52;;;;;;;6.10;3.05;;;17.80;96.70;;;;;;4992629;28;20051;-74
2024/02/29 12:52:24;;;;;;;9.40;3.28;;;17.80;96.70;;;;;;4988164;28;20104;-72
2024/02/29 12:54:53;;;;;;;6.47;3.10;;;17.90;96.70;;;;;;4981815;28;20054;-74
2024/02/29 12:57:22;;;;;;;8.52;3.03;;;17.80;96.70;;;;;;5004915;28;20050;-73
2024/02/29 12:59:52;;;;;;;7.88;3.25;;;17.80;96.70;;;;;;4988628;28;20062;-74
2024/02/29 13:02:28;;;;;;;10.77;3.58;;;17.80;96.70;;;;;;4983062;28;20187;-76